Observation data for Brownfield on 01/11/2018      Previous  Date  Next       Current Mesonet Observations  Soil Data  Daily Summary Page  Observations in Plain Language
KBWS 110600Z 23017G22KT 09/M00 A2965 RMK A01 T00861003  RH  054%=      5-min Rain = 0
KBWS 110605Z 23017G22KT 09/M00 A2965 RMK A01 T00861003  RH  054%=      5-min Rain = 0
KBWS 110610Z 23016G21KT 09/M00 A2965 RMK A01 T00851003  RH  054%=      5-min Rain = 0
KBWS 110615Z 23016G22KT 09/M00 A2965 RMK A01 T00851003  RH  054%=      5-min Rain = 0
KBWS 110620Z 23015KT 08/M00 A2966 RMK A01 T00831004  RH  055%=      5-min Rain = 0
KBWS 110625Z 23015G20KT 08/M00 A2966 RMK A01 T00821004  RH  055%=      5-min Rain = 0
KBWS 110630Z 23016G21KT 08/M00 A2966 RMK A01 T00821004  RH  055%=      5-min Rain = 0
KBWS 110635Z 23016G22KT 08/M00 A2966 RMK A01 T00841003  RH  055%=      5-min Rain = 0
KBWS 110640Z 24018KT 09/M00 A2965 RMK A01 T00851003  RH  054%=      5-min Rain = 0
KBWS 110645Z 24019G26KT 09/M00 A2965 RMK A01 T00871003  RH  054%=      5-min Rain = 0
KBWS 110650Z 24019G24KT 09/M00 A2965 RMK A01 T00891003  RH  053%=      5-min Rain = 0
KBWS 110655Z 24017G22KT 09/M00 A2965 RMK A01 T00881003  RH  053%=      5-min Rain = 0
KBWS 110700Z 23016KT 09/M00 A2965 RMK A01 T00851003  RH  054%=      5-min Rain = 0
KBWS 110705Z 23016G21KT 08/M00 A2965 RMK A01 T00831003  RH  055%=      5-min Rain = 0
KBWS 110710Z 23016G21KT 08/M00 A2965 RMK A01 T00811003  RH  056%=      5-min Rain = 0
KBWS 110715Z 23015G21KT 08/M00 A2966 RMK A01 T00801003  RH  056%=      5-min Rain = 0
KBWS 110720Z 23016KT 08/M00 A2966 RMK A01 T00811003  RH  056%=      5-min Rain = 0
KBWS 110725Z 23015G20KT 08/M00 A2965 RMK A01 T00801003  RH  056%=      5-min Rain = 0
KBWS 110730Z 24014G19KT 08/M00 A2965 RMK A01 T00801003  RH  056%=      5-min Rain = 0
KBWS 110735Z 24014KT 08/M00 A2966 RMK A01 T00791003  RH  057%=      5-min Rain = 0
KBWS 110740Z 23013KT 08/M00 A2966 RMK A01 T00771003  RH  057%=      5-min Rain = 0
KBWS 110745Z 23012KT 08/M00 A2966 RMK A01 T00761003  RH  058%=      5-min Rain = 0
KBWS 110750Z 23011KT 07/M00 A2966 RMK A01 T00741003  RH  059%=      5-min Rain = 0
KBWS 110755Z 24011KT 07/M00 A2966 RMK A01 T00721003  RH  059%=      5-min Rain = 0
KBWS 110800Z 24012KT 07/M00 A2966 RMK A01 T00721003  RH  060%=      5-min Rain = 0
KBWS 110805Z 24012G17KT 07/M00 A2966 RMK A01 T00721003  RH  060%=      5-min Rain = 0
KBWS 110810Z 24013KT 07/M00 A2967 RMK A01 T00731003  RH  059%=      5-min Rain = 0
KBWS 110815Z 24013KT 07/M00 A2967 RMK A01 T00741003  RH  059%=      5-min Rain = 0
KBWS 110820Z 23012KT 07/M00 A2967 RMK A01 T00741003  RH  059%=      5-min Rain = 0
KBWS 110825Z 24011KT 07/M00 A2967 RMK A01 T00731003  RH  059%=      5-min Rain = 0
KBWS 110830Z 23010KT 07/M00 A2968 RMK A01 T00691004  RH  060%=      5-min Rain = 0
KBWS 110835Z 24009KT 07/M00 A2968 RMK A01 T00661004  RH  061%=      5-min Rain = 0
KBWS 110840Z 25010KT 07/M00 A2968 RMK A01 T00651004  RH  062%=      5-min Rain = 0
KBWS 110845Z 24010KT 06/M00 A2968 RMK A01 T00641004  RH  062%=      5-min Rain = 0
KBWS 110850Z 25011KT 07/M00 A2968 RMK A01 T00671003  RH  062%=      5-min Rain = 0
KBWS 110855Z 25011KT 07/M00 A2968 RMK A01 T00671003  RH  062%=      5-min Rain = 0
KBWS 110900Z 25011KT 07/M00 A2968 RMK A01 T00651004  RH  062%=      5-min Rain = 0
KBWS 110905Z 25011KT 07/M00 A2968 RMK A01 T00651003  RH  062%=      5-min Rain = 0
KBWS 110910Z 26010KT 07/M00 A2968 RMK A01 T00671003  RH  062%=      5-min Rain = 0
KBWS 110915Z 26010KT 07/M00 A2969 RMK A01 T00711003  RH  060%=      5-min Rain = 0
KBWS 110920Z 26010KT 08/M00 A2969 RMK A01 T00751002  RH  059%=      5-min Rain = 0
KBWS 110925Z 26010KT 08/M00 A2969 RMK A01 T00761002  RH  058%=      5-min Rain = 0
KBWS 110930Z 26012KT 08/M00 A2969 RMK A01 T00791002  RH  057%=      5-min Rain = 0
KBWS 110935Z 26011KT 08/M00 A2969 RMK A01 T00811003  RH  056%=      5-min Rain = 0
KBWS 110940Z 26013KT 08/M00 A2969 RMK A01 T00821003  RH  056%=      5-min Rain = 0
KBWS 110945Z 26013KT 08/M00 A297 RMK A01 T00841003  RH  055%=      5-min Rain = 0
KBWS 110950Z 27012KT 09/M00 A297 RMK A01 T00851003  RH  054%=      5-min Rain = 0
KBWS 110955Z 27011G16KT 09/M00 A2971 RMK A01 T00871002  RH  054%=      5-min Rain = 0
KBWS 111000Z 28013G18KT 09/M00 A2971 RMK A01 T00911002  RH  053%=      5-min Rain = 0
KBWS 111005Z 28014G19KT 09/M00 A2971 RMK A01 T00931001  RH  052%=      5-min Rain = 0
KBWS 111010Z 29014G19KT 09/M00 A2971 RMK A01 T00941002  RH  052%=      5-min Rain = 0
KBWS 111015Z 29014KT 09/M00 A2972 RMK A01 T00941002  RH  052%=      5-min Rain = 0
KBWS 111020Z 29014KT 09/M00 A2972 RMK A01 T00931002  RH  052%=      5-min Rain = 0
KBWS 111025Z 28015KT 09/M00 A2972 RMK A01 T00931001  RH  052%=      5-min Rain = 0
KBWS 111030Z 29013G18KT 09/M00 A2973 RMK A01 T00921001  RH  053%=      5-min Rain = 0
KBWS 111035Z 29015G26KT 09/M00 A2973 RMK A01 T00921001  RH  053%=      5-min Rain = 0
KBWS 111040Z 31016G24KT 10/01 A2974 RMK A01 T00970005  RH  053%=      5-min Rain = 0
KBWS 111045Z 32017G22KT 10/01 A2975 RMK A01 T00980008  RH  054%=      5-min Rain = 0
KBWS 111050Z 34020G27KT 10/02 A2975 RMK A01 T00960018  RH  059%=      5-min Rain = 0
KBWS 111055Z 35019G25KT 10/02 A2976 RMK A01 T00950016  RH  059%=      5-min Rain = 0
KBWS 111100Z 35016G22KT 09/02 A2976 RMK A01 T00940015  RH  058%=      5-min Rain = 0
KBWS 111105Z 35022G30KT 09/01 A2976 RMK A01 T00920010  RH  057%=      5-min Rain = 0
KBWS 111110Z 36021G32KT 09/01 A2977 RMK A01 T00880005  RH  057%=      5-min Rain = 0
KBWS 111115Z 36025G33KT 09/00 A2977 RMK A01 T00860004  RH  057%=      5-min Rain = 0
KBWS 111120Z 36022G29KT 09/00 A2977 RMK A01 T00850003  RH  057%=      5-min Rain = 0
KBWS 111125Z 36020G25KT 09/00 A2978 RMK A01 T00850003  RH  057%=      5-min Rain = 0
KBWS 111130Z 35016G21KT 08/01 A2978 RMK A01 T00840005  RH  058%=      5-min Rain = 0
KBWS 111135Z 36016G21KT 08/01 A2979 RMK A01 T00830006  RH  059%=      5-min Rain = 0
KBWS 111140Z 35020G26KT 08/01 A2979 RMK A01 T00840005  RH  058%=      5-min Rain = 0
KBWS 111145Z 36021G28KT 08/00 A2979 RMK A01 T00840002  RH  057%=      5-min Rain = 0
KBWS 111150Z 35017G24KT 08/00 A298 RMK A01 T00830001  RH  057%=      5-min Rain = 0
KBWS 111155Z 35016G23KT 08/00 A298 RMK A01 T00830002  RH  058%=      5-min Rain = 0
KBWS 111200Z 34020G31KT 08/00 A298 RMK A01 T00830003  RH  058%=      5-min Rain = 0
KBWS 111205Z 34024G33KT 08/M00 A2981 RMK A01 T00811001  RH  057%=      5-min Rain = 0
KBWS 111210Z 35024G30KT 08/M00 A2981 RMK A01 T00791004  RH  056%=      5-min Rain = 0
KBWS 111215Z 35026G35KT 08/M01 A2981 RMK A01 T00781005  RH  056%=      5-min Rain = 0
KBWS 111220Z 36025G35KT 08/M01 A2981 RMK A01 T00771006  RH  056%=      5-min Rain = 0
KBWS 111225Z 00024G30KT 08/M01 A2982 RMK A01 T00771006  RH  056%=      5-min Rain = 0
KBWS 111230Z 00024G31KT 08/M01 A2982 RMK A01 T00761006  RH  057%=      5-min Rain = 0
KBWS 111235Z 00020G29KT 08/M01 A2982 RMK A01 T00751006  RH  057%=      5-min Rain = 0
KBWS 111240Z 00019G27KT 07/M01 A2983 RMK A01 T00741006  RH  057%=      5-min Rain = 0
KBWS 111245Z 00022G29KT 07/M01 A2983 RMK A01 T00731006  RH  058%=      5-min Rain = 0
KBWS 111250Z 36019G26KT 07/M01 A2985 RMK A01 T00721006  RH  058%=      5-min Rain = 0
KBWS 111255Z 34020G30KT 07/M01 A2985 RMK A01 T00711006  RH  059%=      5-min Rain = 0
KBWS 111300Z 35025G33KT 07/M01 A2986 RMK A01 T00651009  RH  060%=      5-min Rain = 0
KBWS 111305Z 35023G36KT 06/M01 A2986 RMK A01 T00631010  RH  060%=      5-min Rain = 0
KBWS 111310Z 36026G35KT 06/M01 A2987 RMK A01 T00611012  RH  060%=      5-min Rain = 0
KBWS 111315Z 00022G32KT 06/M01 A2987 RMK A01 T00591013  RH  060%=      5-min Rain = 0
KBWS 111320Z 00018G28KT 06/M01 A2988 RMK A01 T00571013  RH  061%=      5-min Rain = 0
KBWS 111325Z 00022G29KT 06/M01 A2988 RMK A01 T00551013  RH  062%=      5-min Rain = 0
KBWS 111330Z 36019G25KT 05/M01 A2989 RMK A01 T00531013  RH  063%=      5-min Rain = 0
KBWS 111335Z 00018G24KT 05/M01 A2989 RMK A01 T00521013  RH  064%=      5-min Rain = 0
KBWS 111340Z 35020G26KT 05/M02 A299 RMK A01 T00511015  RH  063%=      5-min Rain = 0
KBWS 111345Z 34025G31KT 05/M02 A299 RMK A01 T00491021  RH  061%=      5-min Rain = 0
KBWS 111350Z 35026G33KT 05/M03 A299 RMK A01 T00471027  RH  059%=      5-min Rain = 0
KBWS 111355Z 00025G33KT 05/M03 A2991 RMK A01 T00451032  RH  058%=      5-min Rain = 0
KBWS 111400Z 36023G32KT 04/M03 A2991 RMK A01 T00441034  RH  057%=      5-min Rain = 0
KBWS 111405Z 36021G27KT 04/M04 A2991 RMK A01 T00421036  RH  057%=      5-min Rain = 0
KBWS 111410Z 00021G27KT 04/M04 A2992 RMK A01 T00411036  RH  058%=      5-min Rain = 0
KBWS 111415Z 36021G29KT 04/M04 A2992 RMK A01 T00411036  RH  058%=      5-min Rain = 0
KBWS 111420Z 36020G32KT 04/M04 A2993 RMK A01 T00401036  RH  058%=      5-min Rain = 0
KBWS 111425Z 00020G29KT 04/M04 A2993 RMK A01 T00401038  RH  057%=      5-min Rain = 0
KBWS 111430Z 36023G31KT 04/M04 A2994 RMK A01 T00401040  RH  056%=      5-min Rain = 0
KBWS 111435Z 36026G33KT 04/M04 A2995 RMK A01 T00391043  RH  056%=      5-min Rain = 0
KBWS 111440Z 36020G26KT 04/M04 A2996 RMK A01 T00381044  RH  056%=      5-min Rain = 0
KBWS 111445Z 36022G29KT 04/M05 A2997 RMK A01 T00361049  RH  054%=      5-min Rain = 0
KBWS 111450Z 36021G30KT 03/M06 A2997 RMK A01 T00341056  RH  052%=      5-min Rain = 0
KBWS 111455Z 00023G30KT 03/M06 A2998 RMK A01 T00321062  RH  051%=      5-min Rain = 0
KBWS 111500Z 36022G30KT 03/M06 A2999 RMK A01 T00311063  RH  051%=      5-min Rain = 0
KBWS 111505Z 36021G27KT 03/M06 A2999 RMK A01 T00321062  RH  051%=      5-min Rain = 0
KBWS 111510Z 35021G27KT 03/M06 A30 RMK A01 T00321062  RH  051%=      5-min Rain = 0
KBWS 111515Z 36021G27KT 03/M06 A30 RMK A01 T00331060  RH  051%=      5-min Rain = 0
KBWS 111520Z 35019G28KT 04/M06 A3001 RMK A01 T00351059  RH  051%=      5-min Rain = 0
KBWS 111525Z 35022G28KT 04/M06 A3002 RMK A01 T00351062  RH  050%=      5-min Rain = 0
KBWS 111530Z 36024G34KT 03/M07 A3002 RMK A01 T00341066  RH  048%=      5-min Rain = 0
KBWS 111535Z 36023G31KT 03/M07 A3003 RMK A01 T00331067  RH  048%=      5-min Rain = 0
KBWS 111540Z 35022G31KT 03/M07 A3003 RMK A01 T00341066  RH  048%=      5-min Rain = 0
KBWS 111545Z 36022G29KT 03/M07 A3004 RMK A01 T00341065  RH  049%=      5-min Rain = 0
KBWS 111550Z 34018G24KT 04/M06 A3004 RMK A01 T00351062  RH  050%=      5-min Rain = 0
KBWS 111555Z 34022G28KT 03/M06 A3005 RMK A01 T00341061  RH  050%=      5-min Rain = 0
KBWS 111600Z 34023G30KT 03/M06 A3005 RMK A01 T00341063  RH  050%=      5-min Rain = 0
KBWS 111605Z 35020G25KT 03/M06 A3006 RMK A01 T00341063  RH  050%=      5-min Rain = 0
KBWS 111610Z 34019G25KT 04/M06 A3006 RMK A01 T00351062  RH  050%=      5-min Rain = 0
KBWS 111615Z 35020G27KT 03/M06 A3007 RMK A01 T00341062  RH  050%=      5-min Rain = 0
KBWS 111620Z 34016G22KT 04/M06 A3007 RMK A01 T00351062  RH  050%=      5-min Rain = 0
KBWS 111625Z 34020G26KT 03/M06 A3008 RMK A01 T00331064  RH  050%=      5-min Rain = 0
KBWS 111630Z 34019G25KT 04/M06 A3008 RMK A01 T00351064  RH  049%=      5-min Rain = 0
KBWS 111635Z 34021G28KT 03/M07 A3009 RMK A01 T00331066  RH  049%=      5-min Rain = 0
KBWS 111640Z 34021G26KT 03/M07 A3009 RMK A01 T00341067  RH  048%=      5-min Rain = 0
KBWS 111645Z 35020G26KT 04/M07 A301 RMK A01 T00411067  RH  046%=      5-min Rain = 0
KBWS 111650Z 35022G29KT 04/M08 A301 RMK A01 T00441076  RH  042%=      5-min Rain = 0
KBWS 111655Z 35023G32KT 05/M08 A3011 RMK A01 T00451079  RH  041%=      5-min Rain = 0
KBWS 111700Z 36024G33KT 04/M08 A3011 RMK A01 T00441081  RH  040%=      5-min Rain = 0
KBWS 111705Z 36021G29KT 05/M08 A3011 RMK A01 T00461080  RH  040%=      5-min Rain = 0
KBWS 111710Z 35020G26KT 05/M08 A3011 RMK A01 T00471079  RH  040%=      5-min Rain = 0
KBWS 111715Z 34021G28KT 06/M08 A3012 RMK A01 T00551078  RH  038%=      5-min Rain = 0
KBWS 111720Z 34023G30KT 06/M08 A3012 RMK A01 T00571080  RH  037%=      5-min Rain = 0
KBWS 111725Z 35022G28KT 06/M08 A3013 RMK A01 T00571082  RH  037%=      5-min Rain = 0
KBWS 111730Z 35024G31KT 06/M08 A3013 RMK A01 T00551084  RH  036%=      5-min Rain = 0
KBWS 111735Z 35024G31KT 06/M09 A3013 RMK A01 T00551086  RH  036%=      5-min Rain = 0
KBWS 111740Z 35023G32KT 05/M09 A3013 RMK A01 T00521089  RH  036%=      5-min Rain = 0
KBWS 111745Z 35022G29KT 06/M09 A3014 RMK A01 T00561088  RH  035%=      5-min Rain = 0
KBWS 111750Z 35024G32KT 06/M09 A3014 RMK A01 T00571089  RH  035%=      5-min Rain = 0
KBWS 111755Z 36025G34KT 06/M09 A3014 RMK A01 T00591092  RH  033%=      5-min Rain = 0
KBWS 111800Z 00023G31KT 06/M09 A3015 RMK A01 T00591094  RH  033%=      5-min Rain = 0
KBWS 111805Z 36019G27KT 07/M09 A3015 RMK A01 T00651091  RH  032%=      5-min Rain = 0
KBWS 111810Z 35020G27KT 07/M09 A3015 RMK A01 T00661091  RH  032%=      5-min Rain = 0
KBWS 111815Z 35018G24KT 07/M09 A3015 RMK A01 T00671089  RH  032%=      5-min Rain = 0
KBWS 111820Z 35023G32KT 07/M10 A3015 RMK A01 T00681095  RH  031%=      5-min Rain = 0
KBWS 111825Z 36022G29KT 07/M10 A3014 RMK A01 T00671095  RH  031%=      5-min Rain = 0
KBWS 111830Z 35022G29KT 07/M10 A3015 RMK A01 T00671097  RH  030%=      5-min Rain = 0
KBWS 111835Z 00022G28KT 07/M10 A3015 RMK A01 T00691098  RH  030%=      5-min Rain = 0
KBWS 111840Z 01022G29KT 07/M10 A3015 RMK A01 T00711098  RH  029%=      5-min Rain = 0
KBWS 111845Z 36020G26KT 07/M10 A3014 RMK A01 T00721097  RH  029%=      5-min Rain = 0
KBWS 111850Z 35020G26KT 07/M10 A3015 RMK A01 T00741096  RH  029%=      5-min Rain = 0
KBWS 111855Z 34021G29KT 08/M09 A3015 RMK A01 T00771094  RH  029%=      5-min Rain = 0
KBWS 111900Z 35024G29KT 08/M10 A3015 RMK A01 T00751100  RH  028%=      5-min Rain = 0
KBWS 111905Z 36023G29KT 08/M10 A3016 RMK A01 T00751101  RH  028%=      5-min Rain = 0
KBWS 111910Z 36021G29KT 08/M10 A3015 RMK A01 T00781101  RH  027%=      5-min Rain = 0
KBWS 111915Z 36021G27KT 08/M10 A3016 RMK A01 T00791104  RH  027%=      5-min Rain = 0
KBWS 111920Z 36021G27KT 08/M10 A3015 RMK A01 T00781103  RH  027%=      5-min Rain = 0
KBWS 111925Z 35021G29KT 08/M11 A3015 RMK A01 T00801105  RH  026%=      5-min Rain = 0
KBWS 111930Z 36022G30KT 08/M11 A3015 RMK A01 T00801107  RH  026%=      5-min Rain = 0
KBWS 111935Z 36021G27KT 08/M11 A3015 RMK A01 T00801107  RH  026%=      5-min Rain = 0
KBWS 111940Z 01020G27KT 08/M11 A3015 RMK A01 T00831106  RH  025%=      5-min Rain = 0
KBWS 111945Z 35019G26KT 09/M11 A3015 RMK A01 T00861105  RH  025%=      5-min Rain = 0
KBWS 111950Z 36019G25KT 09/M11 A3015 RMK A01 T00851106  RH  025%=      5-min Rain = 0
KBWS 111955Z 34020G26KT 09/M11 A3015 RMK A01 T00861105  RH  025%=      5-min Rain = 0
KBWS 112000Z 35017G25KT 09/M10 A3015 RMK A01 T00881104  RH  025%=      5-min Rain = 0
KBWS 112005Z 35020G25KT 09/M11 A3015 RMK A01 T00861106  RH  025%=      5-min Rain = 0
KBWS 112010Z 35020G26KT 09/M11 A3015 RMK A01 T00871105  RH  025%=      5-min Rain = 0
KBWS 112015Z 35020G26KT 09/M11 A3015 RMK A01 T00881105  RH  025%=      5-min Rain = 0
KBWS 112020Z 36020G27KT 09/M11 A3015 RMK A01 T00891106  RH  024%=      5-min Rain = 0
KBWS 112025Z 36021G27KT 09/M11 A3015 RMK A01 T00881105  RH  025%=      5-min Rain = 0
KBWS 112030Z 00019G27KT 09/M10 A3015 RMK A01 T00901103  RH  025%=      5-min Rain = 0
KBWS 112035Z 36017G24KT 09/M10 A3016 RMK A01 T00901103  RH  025%=      5-min Rain = 0
KBWS 112040Z 36020G26KT 09/M10 A3016 RMK A01 T00931103  RH  024%=      5-min Rain = 0
KBWS 112045Z 00020G27KT 09/M10 A3016 RMK A01 T00911104  RH  024%=      5-min Rain = 0
KBWS 112050Z 00018G24KT 09/M10 A3017 RMK A01 T00931102  RH  024%=      5-min Rain = 0
KBWS 112055Z 36018G25KT 09/M10 A3017 RMK A01 T00941102  RH  024%=      5-min Rain = 0
KBWS 112100Z 35017G25KT 10/M10 A3017 RMK A01 T00971103  RH  024%=      5-min Rain = 0
KBWS 112105Z 36018G27KT 10/M10 A3018 RMK A01 T00961104  RH  023%=      5-min Rain = 0
KBWS 112110Z 36018G24KT 10/M11 A3018 RMK A01 T00961105  RH  023%=      5-min Rain = 0
KBWS 112115Z 01017G22KT 10/M10 A3018 RMK A01 T00961104  RH  024%=      5-min Rain = 0
KBWS 112120Z 35017G24KT 10/M10 A3018 RMK A01 T00991104  RH  023%=      5-min Rain = 0
KBWS 112125Z 00018G24KT 10/M11 A3018 RMK A01 T00991105  RH  023%=      5-min Rain = 0
KBWS 112130Z 01016KT 10/M10 A3017 RMK A01 T00971104  RH  023%=      5-min Rain = 0
KBWS 112135Z 35017G23KT 10/M11 A3018 RMK A01 T00991105  RH  023%=      5-min Rain = 0
KBWS 112140Z 01016G21KT 10/M11 A3018 RMK A01 T00981105  RH  023%=      5-min Rain = 0
KBWS 112145Z 35015G24KT 10/M11 A3019 RMK A01 T00981106  RH  023%=      5-min Rain = 0
KBWS 112150Z 35018G23KT 10/M11 A3019 RMK A01 T00961111  RH  022%=      5-min Rain = 0
KBWS 112155Z 01015G20KT 10/M11 A3019 RMK A01 T00971108  RH  023%=      5-min Rain = 0
KBWS 112200Z 00016G22KT 10/M11 A3019 RMK A01 T00981108  RH  023%=      5-min Rain = 0
KBWS 112205Z 35016G22KT 10/M11 A3019 RMK A01 T00951108  RH  023%=      5-min Rain = 0
KBWS 112210Z 35016G22KT 10/M11 A3019 RMK A01 T00971108  RH  023%=      5-min Rain = 0
KBWS 112215Z 36016G22KT 10/M11 A302 RMK A01 T00971110  RH  022%=      5-min Rain = 0
KBWS 112220Z 35016G22KT 10/M11 A302 RMK A01 T00971110  RH  022%=      5-min Rain = 0
KBWS 112225Z 35015G22KT 10/M11 A302 RMK A01 T00971110  RH  022%=      5-min Rain = 0
KBWS 112230Z 35013G18KT 10/M11 A302 RMK A01 T00961109  RH  023%=      5-min Rain = 0
KBWS 112235Z 35012G17KT 10/M11 A302 RMK A01 T00961109  RH  023%=      5-min Rain = 0
KBWS 112240Z 00013G18KT 10/M11 A3021 RMK A01 T00951110  RH  023%=      5-min Rain = 0
KBWS 112245Z 35012KT 10/M11 A3021 RMK A01 T00961110  RH  022%=      5-min Rain = 0
KBWS 112250Z 00013KT 10/M11 A3021 RMK A01 T00951111  RH  022%=      5-min Rain = 0
KBWS 112255Z 36013G19KT 09/M11 A3021 RMK A01 T00941113  RH  022%=      5-min Rain = 0
KBWS 112300Z 36013G19KT 09/M12 A3021 RMK A01 T00941115  RH  022%=      5-min Rain = 0
KBWS 112305Z 35013G18KT 09/M12 A3022 RMK A01 T00941117  RH  022%=      5-min Rain = 0
KBWS 112310Z 34015KT 09/M12 A3022 RMK A01 T00931120  RH  021%=      5-min Rain = 0
KBWS 112315Z 35015G20KT 09/M12 A3023 RMK A01 T00911122  RH  021%=      5-min Rain = 0
KBWS 112320Z 00013G18KT 09/M12 A3023 RMK A01 T00891120  RH  022%=      5-min Rain = 0
KBWS 112325Z 01013G18KT 09/M12 A3023 RMK A01 T00881118  RH  022%=      5-min Rain = 0
KBWS 112330Z 01011G17KT 09/M12 A3023 RMK A01 T00861117  RH  023%=      5-min Rain = 0
KBWS 112335Z 01012G17KT 09/M12 A3023 RMK A01 T00851116  RH  023%=      5-min Rain = 0
KBWS 112340Z 01010KT 08/M12 A3023 RMK A01 T00831116  RH  023%=      5-min Rain = 0
KBWS 112345Z 01009G14KT 08/M12 A3024 RMK A01 T00811115  RH  024%=      5-min Rain = 0
KBWS 112350Z 02009KT 08/M11 A3024 RMK A01 T00791114  RH  024%=      5-min Rain = 0
KBWS 112355Z 02009KT 08/M11 A3024 RMK A01 T00771113  RH  025%=      5-min Rain = 0
KBWS 120000Z 02009KT 08/M11 A3024 RMK A01 T00751112  RH  025%=      5-min Rain = 0
KBWS 120005Z 02008KT 07/M11 A3024 RMK A01 T00711113  RH  026%=      5-min Rain = 0
KBWS 120010Z 03008KT 07/M11 A3024 RMK A01 T00681112  RH  027%=      5-min Rain = 0
KBWS 120015Z 03007KT 07/M11 A3024 RMK A01 T00661113  RH  027%=      5-min Rain = 0
KBWS 120020Z 03007KT 06/M11 A3024 RMK A01 T00631112  RH  028%=      5-min Rain = 0
KBWS 120025Z 03006KT 06/M11 A3024 RMK A01 T00591113  RH  028%=      5-min Rain = 0
KBWS 120030Z 02006KT 06/M11 A3025 RMK A01 T00561113  RH  029%=      5-min Rain = 0
KBWS 120035Z 02006KT 06/M11 A3024 RMK A01 T00561112  RH  029%=      5-min Rain = 0
KBWS 120040Z 02006KT 06/M11 A3024 RMK A01 T00571111  RH  029%=      5-min Rain = 0
KBWS 120045Z 02007KT 06/M11 A3025 RMK A01 T00571109  RH  029%=      5-min Rain = 0
KBWS 120050Z 02007KT 06/M11 A3025 RMK A01 T00561110  RH  030%=      5-min Rain = 0
KBWS 120055Z 02007KT 06/M11 A3025 RMK A01 T00561109  RH  030%=      5-min Rain = 0
KBWS 120100Z 01006KT 05/M11 A3025 RMK A01 T00531110  RH  030%=      5-min Rain = 0
KBWS 120105Z 01006KT 05/M11 A3025 RMK A01 T00511110  RH  031%=      5-min Rain = 0
KBWS 120110Z 01006KT 05/M11 A3025 RMK A01 T00491111  RH  031%=      5-min Rain = 0
KBWS 120115Z 01005KT 05/M11 A3025 RMK A01 T00451113  RH  031%=      5-min Rain = 0
KBWS 120120Z 01005KT 04/M11 A3025 RMK A01 T00441114  RH  031%=      5-min Rain = 0
KBWS 120125Z 01004KT 05/M11 A3026 RMK A01 T00461114  RH  031%=      5-min Rain = 0
KBWS 120130Z 01004KT 05/M11 A3026 RMK A01 T00471114  RH  030%=      5-min Rain = 0
KBWS 120135Z 01005KT 05/M11 A3026 RMK A01 T00481113  RH  030%=      5-min Rain = 0
KBWS 120140Z 02006KT 05/M12 A3026 RMK A01 T00451115  RH  031%=      5-min Rain = 0
KBWS 120145Z 02006KT 04/M11 A3026 RMK A01 T00391111  RH  033%=      5-min Rain = 0
KBWS 120150Z 02006KT 04/M11 A3026 RMK A01 T00411110  RH  033%=      5-min Rain = 0
KBWS 120155Z 01006KT 04/M11 A3026 RMK A01 T00421110  RH  033%=      5-min Rain = 0
KBWS 120200Z 01005KT 04/M11 A3026 RMK A01 T00401111  RH  033%=      5-min Rain = 0
KBWS 120205Z 01005KT 04/M11 A3026 RMK A01 T00361112  RH  033%=      5-min Rain = 0
KBWS 120210Z 02006KT 04/M11 A3026 RMK A01 T00351111  RH  034%=      5-min Rain = 0
KBWS 120215Z 02006KT 03/M11 A3026 RMK A01 T00341109  RH  035%=      5-min Rain = 0
KBWS 120220Z 02006KT 03/M11 A3026 RMK A01 T00281114  RH  035%=      5-min Rain = 0
KBWS 120225Z 02005KT 03/M11 A3026 RMK A01 T00281112  RH  035%=      5-min Rain = 0
KBWS 120230Z 01004KT 03/M11 A3026 RMK A01 T00301110  RH  035%=      5-min Rain = 0
KBWS 120235Z 01004KT 03/M11 A3026 RMK A01 T00291112  RH  035%=      5-min Rain = 0
KBWS 120240Z 02003KT 03/M11 A3026 RMK A01 T00281114  RH  035%=      5-min Rain = 0
KBWS 120245Z 02004KT 03/M11 A3026 RMK A01 T00251113  RH  036%=      5-min Rain = 0
KBWS 120250Z 02005KT 03/M11 A3026 RMK A01 T00251110  RH  037%=      5-min Rain = 0
KBWS 120255Z 02004KT 03/M11 A3026 RMK A01 T00251110  RH  037%=      5-min Rain = 0
KBWS 120300Z 03004KT 03/M11 A3026 RMK A01 T00251110  RH  037%=      5-min Rain = 0
KBWS 120305Z 03005KT 02/M11 A3026 RMK A01 T00231113  RH  036%=      5-min Rain = 0
KBWS 120310Z 03006KT 02/M12 A3026 RMK A01 T00201116  RH  036%=      5-min Rain = 0
KBWS 120315Z 03006KT 02/M12 A3026 RMK A01 T00171116  RH  037%=      5-min Rain = 0
KBWS 120320Z 03005KT 02/M12 A3027 RMK A01 T00161115  RH  038%=      5-min Rain = 0
KBWS 120325Z 03005KT 02/M11 A3027 RMK A01 T00171114  RH  037%=      5-min Rain = 0
KBWS 120330Z 04005KT 02/M11 A3027 RMK A01 T00171114  RH  038%=      5-min Rain = 0
KBWS 120335Z 04004KT 02/M11 A3027 RMK A01 T00161114  RH  038%=      5-min Rain = 0
KBWS 120340Z 04004KT 02/M11 A3027 RMK A01 T00151114  RH  038%=      5-min Rain = 0
KBWS 120345Z 04003KT 02/M11 A3027 RMK A01 T00151113  RH  039%=      5-min Rain = 0
KBWS 120350Z 05004KT 01/M11 A3027 RMK A01 T00141108  RH  040%=      5-min Rain = 0
KBWS 120355Z 04002KT 01/M11 A3027 RMK A01 T00131109  RH  040%=      5-min Rain = 0
KBWS 120400Z 03003KT 01/M11 A3027 RMK A01 T00121113  RH  039%=      5-min Rain = 0
KBWS 120405Z 04003KT 01/M12 A3027 RMK A01 T00141115  RH  038%=      5-min Rain = 0
KBWS 120410Z 04003KT 01/M12 A3027 RMK A01 T00131115  RH  038%=      5-min Rain = 0
KBWS 120415Z 05003KT 01/M12 A3027 RMK A01 T00111116  RH  039%=      5-min Rain = 0
KBWS 120420Z 05002KT 01/M12 A3027 RMK A01 T00091115  RH  040%=      5-min Rain = 0
KBWS 120425Z 04002KT 01/M12 A3028 RMK A01 T00071115  RH  040%=      5-min Rain = 0
KBWS 120430Z 03002KT 01/M11 A3028 RMK A01 T00081114  RH  040%=      5-min Rain = 0
KBWS 120435Z 01002KT 01/M11 A3028 RMK A01 T00111113  RH  040%=      5-min Rain = 0
KBWS 120440Z 02002KT 01/M11 A3028 RMK A01 T00111110  RH  041%=      5-min Rain = 0
KBWS 120445Z 03002KT 01/M11 A3028 RMK A01 T00091112  RH  040%=      5-min Rain = 0
KBWS 120450Z 03002KT 01/M11 A3028 RMK A01 T00091111  RH  041%=      5-min Rain = 0
KBWS 120455Z 03003KT 01/M11 A3028 RMK A01 T00101111  RH  040%=      5-min Rain = 0
KBWS 120500Z 05002KT 01/M11 A3028 RMK A01 T00091112  RH  040%=      5-min Rain = 0
KBWS 120505Z 04003KT 01/M11 A3028 RMK A01 T00081113  RH  041%=      5-min Rain = 0
KBWS 120510Z 04003KT 01/M11 A3028 RMK A01 T00071113  RH  041%=      5-min Rain = 0
KBWS 120515Z 03003KT 01/M11 A3028 RMK A01 T00081113  RH  041%=      5-min Rain = 0
KBWS 120520Z 05003KT 01/M11 A3028 RMK A01 T00051113  RH  041%=      5-min Rain = 0
KBWS 120525Z 06002KT 01/M11 A3029 RMK A01 T00051113  RH  042%=      5-min Rain = 0
KBWS 120530Z 05002KT 01/M11 A3028 RMK A01 T00051111  RH  042%=      5-min Rain = 0
KBWS 120535Z 05002KT 01/M11 A3028 RMK A01 T00051112  RH  042%=      5-min Rain = 0
KBWS 120540Z 05002KT 00/M11 A3028 RMK A01 T00041112  RH  042%=      5-min Rain = 0
KBWS 120545Z 06002KT 00/M11 A3028 RMK A01 T00031114  RH  042%=      5-min Rain = 0
KBWS 120550Z 06002KT 00/M11 A3028 RMK A01 T00011113  RH  042%=      5-min Rain = 0
KBWS 120555Z 06002KT 00/M11 A3028 RMK A01 T00031113  RH  042%=      5-min Rain = 0

Page generated in 0.0381 seconds.